createdAt,value
2019-05-11T00:01:01.358Z,9.53
2019-05-11T00:03:30.041Z,10.03
2019-05-11T00:05:58.786Z,9.83
2019-05-11T00:08:27.414Z,10.17
2019-05-11T00:10:56.099Z,9.90
2019-05-11T00:13:24.821Z,8.83
2019-05-11T00:15:54.204Z,9.27
2019-05-11T00:18:22.566Z,8.90
2019-05-11T00:20:51.078Z,8.37
2019-05-11T00:23:19.650Z,8.73
2019-05-11T00:25:48.213Z,8.10
2019-05-11T00:28:16.735Z,8.27
2019-05-11T00:30:45.391Z,8.07
2019-05-11T00:33:14.065Z,7.90
2019-05-11T00:35:42.806Z,8.27
2019-05-11T00:38:11.455Z,7.37
2019-05-11T00:40:40.225Z,8.77
2019-05-11T00:43:08.648Z,8.07
2019-05-11T00:45:37.292Z,8.53
2019-05-11T00:48:05.688Z,9.00
2019-05-11T00:50:39.430Z,8.63
2019-05-11T00:53:04.378Z,9.10
2019-05-11T00:55:33.060Z,9.10
2019-05-11T00:58:01.768Z,8.90
2019-05-11T01:00:30.425Z,8.57
2019-05-11T01:02:59.103Z,7.57
2019-05-11T01:05:27.623Z,8.47
2019-05-11T01:07:56.268Z,7.87
2019-05-11T01:10:41.047Z,7.57
2019-05-11T01:12:55.704Z,8.57
2019-05-11T01:15:24.486Z,7.70
2019-05-11T01:17:52.866Z,8.00
2019-05-11T01:20:21.618Z,7.50
2019-05-11T01:22:50.015Z,6.73
2019-05-11T01:25:18.701Z,6.97
2019-05-11T01:27:48.035Z,6.97
2019-05-11T01:30:17.621Z,6.87
2019-05-11T01:32:46.098Z,6.90
2019-05-11T01:35:14.704Z,6.20
2019-05-11T01:37:43.380Z,6.23
2019-05-11T01:40:12.362Z,5.70
2019-05-11T01:42:41.170Z,6.30
2019-05-11T01:45:09.630Z,6.03
2019-05-11T01:47:38.309Z,6.60
2019-05-11T01:50:07.030Z,6.90
2019-05-11T01:52:35.713Z,6.70
2019-05-11T01:55:04.173Z,5.80
2019-05-11T01:57:32.465Z,6.40
2019-05-11T02:00:01.129Z,6.67
2019-05-11T02:02:29.812Z,6.13
2019-05-11T02:05:16.321Z,6.60
2019-05-11T02:07:45.008Z,6.67
2019-05-11T02:10:13.709Z,6.10
2019-05-11T02:12:42.389Z,6.90
2019-05-11T02:15:11.065Z,5.80
2019-05-11T02:17:39.741Z,6.67
2019-05-11T02:20:08.460Z,6.67
2019-05-11T02:22:36.928Z,6.87
2019-05-11T02:25:05.704Z,5.90
2019-05-11T02:27:34.507Z,5.80
2019-05-11T02:30:03.388Z,6.97
2019-05-11T02:32:31.764Z,7.17
2019-05-11T02:35:00.697Z,6.80
2019-05-11T02:37:29.154Z,6.90
2019-05-11T02:39:57.624Z,7.80
2019-05-11T02:42:26.427Z,7.17
2019-05-11T02:44:55.080Z,7.30
2019-05-11T02:47:23.784Z,7.63
2019-05-11T02:49:52.500Z,7.40
2019-05-11T02:52:22.078Z,8.30
2019-05-11T02:54:52.202Z,8.03
2019-05-11T02:57:20.779Z,7.47
2019-05-11T02:59:49.439Z,7.20
2019-05-11T03:02:18.078Z,7.37
2019-05-11T03:04:46.312Z,7.63
2019-05-11T03:07:15.098Z,7.80
2019-05-11T03:09:43.827Z,8.40
2019-05-11T03:12:12.471Z,8.20
2019-05-11T03:14:40.942Z,8.80
2019-05-11T03:17:16.784Z,8.27
2019-05-11T03:19:45.488Z,8.10
2019-05-11T03:22:14.114Z,8.67
2019-05-11T03:24:43.153Z,7.70
2019-05-11T03:27:11.544Z,9.03
2019-05-11T03:29:41.148Z,8.93
2019-05-11T03:32:09.979Z,8.07
2019-05-11T03:34:38.771Z,8.87
2019-05-11T03:37:07.521Z,9.77
2019-05-11T03:39:36.213Z,8.67
2019-05-11T03:42:14.642Z,9.13
2019-05-11T03:44:35.413Z,9.60
2019-05-11T03:47:03.931Z,9.13
2019-05-11T03:49:32.631Z,9.83
2019-05-11T03:52:00.975Z,10.10
2019-05-11T03:54:32.991Z,11.27
2019-05-11T03:57:01.936Z,11.33
2019-05-11T03:59:30.611Z,11.53
2019-05-11T04:01:59.394Z,11.43
2019-05-11T04:04:29.785Z,10.90
2019-05-11T04:06:59.224Z,11.93
2019-05-11T04:09:30.942Z,11.77
2019-05-11T04:12:01.577Z,11.80
2019-05-11T04:14:33.820Z,12.07
2019-05-11T04:17:05.668Z,11.33
2019-05-11T04:19:34.675Z,10.37
2019-05-11T04:22:06.253Z,9.77
2019-05-11T04:24:37.781Z,9.47
2019-05-11T04:27:12.806Z,9.57
2019-05-11T04:29:46.359Z,7.73
2019-05-11T04:32:18.332Z,7.53
2019-05-11T04:34:48.882Z,6.70
2019-05-11T04:37:17.974Z,7.10
2019-05-11T04:39:48.208Z,6.70
2019-05-11T04:42:20.157Z,6.63
2019-05-11T04:44:52.576Z,6.17
2019-05-11T04:47:24.492Z,5.97
2019-05-11T04:49:53.881Z,5.90
2019-05-11T04:52:22.578Z,5.77
2019-05-11T04:54:51.299Z,5.83
2019-05-11T04:57:19.955Z,4.87
2019-05-11T04:59:48.622Z,5.30
2019-05-11T05:02:17.327Z,5.10
2019-05-11T05:04:45.989Z,13.83
2019-05-11T05:07:16.682Z,11.60
2019-05-11T05:09:45.456Z,6.30
2019-05-11T05:12:15.499Z,5.37
2019-05-11T05:14:44.506Z,5.50
2019-05-11T05:17:12.975Z,5.93
2019-05-11T05:19:42.767Z,4.73
2019-05-11T05:22:11.911Z,6.13
2019-05-11T05:24:40.620Z,5.20
2019-05-11T05:27:09.075Z,4.80
2019-05-11T05:29:37.482Z,5.10
2019-05-11T05:32:06.901Z,4.70
2019-05-11T05:34:35.602Z,4.73
2019-05-11T05:37:04.235Z,4.77
2019-05-11T05:39:32.955Z,4.53
2019-05-11T05:42:01.608Z,4.83
2019-05-11T05:44:30.294Z,3.97
2019-05-11T05:46:58.999Z,4.27
2019-05-11T05:49:27.647Z,4.33
2019-05-11T05:51:58.526Z,4.30
2019-05-11T05:54:26.498Z,5.33
2019-05-11T05:56:54.960Z,4.63
2019-05-11T05:59:23.626Z,4.50
2019-05-11T06:02:01.762Z,4.10
2019-05-11T06:04:39.694Z,4.33
2019-05-11T06:07:17.080Z,4.10
2019-05-11T06:09:52.407Z,4.60
2019-05-11T06:12:28.681Z,4.27
2019-05-11T06:15:10.913Z,4.40
2019-05-11T06:17:49.032Z,4.50
2019-05-11T06:20:32.098Z,4.40
2019-05-11T06:23:09.308Z,3.90
2019-05-11T06:25:41.519Z,4.33
2019-05-11T06:28:19.375Z,4.37
2019-05-11T06:30:55.442Z,4.67
2019-05-11T06:33:34.129Z,4.60
2019-05-11T06:36:14.100Z,4.10
2019-05-11T06:38:47.664Z,4.10
2019-05-11T06:41:22.613Z,4.80
2019-05-11T06:44:01.771Z,4.23
2019-05-11T06:46:37.293Z,4.17
2019-05-11T06:49:14.208Z,3.93
2019-05-11T06:51:59.377Z,3.63
2019-05-11T06:54:38.637Z,4.10
2019-05-11T06:57:16.827Z,3.77
2019-05-11T06:59:53.167Z,3.83
2019-05-11T07:02:28.439Z,3.70
2019-05-11T07:05:06.362Z,3.40
2019-05-11T07:07:47.492Z,3.13
2019-05-11T07:10:22.067Z,3.30
2019-05-11T07:12:58.151Z,3.40
2019-05-11T07:15:35.519Z,3.30
2019-05-11T07:18:14.220Z,2.97
2019-05-11T07:20:51.101Z,3.20
2019-05-11T07:23:30.315Z,2.93
2019-05-11T07:26:05.083Z,3.30
2019-05-11T07:28:43.070Z,2.60
2019-05-11T07:31:20.865Z,2.70
2019-05-11T07:34:01.845Z,2.87
2019-05-11T07:36:38.737Z,2.50
2019-05-11T07:39:15.399Z,2.70
2019-05-11T07:41:58.305Z,2.83
2019-05-11T07:44:37.887Z,2.63
2019-05-11T07:47:18.694Z,2.40
2019-05-11T07:49:57.735Z,2.70
2019-05-11T07:52:31.328Z,2.70
2019-05-11T07:55:09.738Z,2.73
2019-05-11T07:57:48.750Z,2.40
2019-05-11T08:00:27.857Z,3.07
2019-05-11T08:03:17.952Z,2.73
2019-05-11T08:05:58.221Z,2.40
2019-05-11T08:08:38.238Z,2.50
2019-05-11T08:11:10.744Z,2.90
2019-05-11T08:13:48.227Z,2.77
2019-05-11T08:16:22.719Z,2.80
2019-05-11T08:18:58.907Z,2.80
2019-05-11T08:21:35.042Z,2.70
2019-05-11T08:24:12.658Z,2.67
2019-05-11T08:26:53.508Z,2.90
2019-05-11T08:29:31.022Z,2.73
2019-05-11T08:32:08.291Z,2.77
2019-05-11T08:34:44.713Z,2.50
2019-05-11T08:37:30.605Z,2.70
2019-05-11T08:40:07.909Z,3.00
2019-05-11T08:42:41.950Z,2.60
2019-05-11T08:45:23.647Z,2.53
2019-05-11T08:47:57.738Z,2.90
2019-05-11T08:50:33.977Z,3.03
2019-05-11T08:53:12.838Z,2.60
2019-05-11T08:55:48.879Z,2.73
2019-05-11T08:58:33.771Z,2.60
2019-05-11T09:01:12.186Z,2.40
2019-05-11T09:03:50.656Z,2.90
2019-05-11T09:06:37.507Z,2.50
2019-05-11T09:09:14.287Z,2.30
2019-05-11T09:11:50.801Z,2.70
2019-05-11T09:14:22.017Z,2.80
2019-05-11T09:16:59.151Z,2.83
2019-05-11T09:19:42.210Z,2.70
2019-05-11T09:22:18.645Z,2.60
2019-05-11T09:24:58.265Z,2.73
2019-05-11T09:27:37.636Z,6.13
2019-05-11T09:30:19.276Z,3.13
2019-05-11T09:32:59.691Z,3.57
2019-05-11T09:35:47.643Z,2.97
2019-05-11T09:38:19.183Z,3.37
2019-05-11T09:40:58.402Z,3.50
2019-05-11T09:43:32.158Z,3.37
2019-05-11T09:46:20.826Z,3.53
2019-05-11T09:48:58.776Z,3.63
2019-05-11T09:51:37.961Z,3.27
2019-05-11T09:54:13.761Z,3.37
2019-05-11T09:56:57.840Z,3.40
2019-05-11T09:59:38.637Z,3.20
2019-05-11T10:02:21.061Z,3.80
2019-05-11T10:04:54.759Z,3.50
2019-05-11T10:07:33.680Z,3.37
2019-05-11T10:10:11.452Z,3.50
2019-05-11T10:12:44.642Z,3.27
2019-05-11T10:15:27.952Z,3.40
2019-05-11T10:18:02.467Z,3.50
2019-05-11T10:20:39.252Z,3.70
2019-05-11T10:23:14.477Z,3.63
2019-05-11T10:25:58.775Z,3.93
2019-05-11T10:28:35.937Z,3.97
2019-05-11T10:31:12.432Z,4.00
2019-05-11T10:33:53.690Z,4.10
2019-05-11T10:36:32.855Z,4.20
2019-05-11T10:39:11.413Z,3.97
2019-05-11T10:41:43.989Z,3.40
2019-05-11T10:44:24.253Z,3.90
2019-05-11T10:47:00.827Z,3.97
2019-05-11T10:49:40.869Z,3.60
2019-05-11T10:52:14.874Z,3.70
2019-05-11T10:54:47.811Z,3.70
2019-05-11T10:57:22.297Z,3.70
2019-05-11T10:59:54.692Z,4.20
2019-05-11T11:02:32.873Z,4.83
2019-05-11T11:05:08.488Z,3.97
2019-05-11T11:07:43.079Z,4.50
2019-05-11T11:10:22.152Z,4.20
2019-05-11T11:13:00.626Z,4.07
2019-05-11T11:15:40.109Z,4.30
2019-05-11T11:18:19.281Z,4.47
2019-05-11T11:20:59.687Z,4.80
2019-05-11T11:23:35.351Z,3.93
2019-05-11T11:26:08.350Z,4.00
2019-05-11T11:28:43.544Z,4.10
2019-05-11T11:31:18.815Z,4.03
2019-05-11T11:33:58.295Z,3.33
2019-05-11T11:36:33.071Z,2.93
2019-05-11T11:39:09.398Z,3.30
2019-05-11T11:41:44.593Z,3.07
2019-05-11T11:44:28.617Z,3.50
2019-05-11T11:47:08.919Z,3.13
2019-05-11T11:49:47.577Z,3.30
2019-05-11T11:52:20.113Z,2.70
2019-05-11T11:54:54.893Z,3.23
2019-05-11T11:57:39.290Z,3.40
2019-05-11T12:00:11.841Z,3.30
2019-05-11T12:02:55.225Z,3.30
2019-05-11T12:05:35.354Z,3.63
2019-05-11T12:08:22.981Z,3.60
2019-05-11T12:10:59.036Z,3.07
2019-05-11T12:13:39.478Z,3.33
2019-05-11T12:16:12.657Z,3.13
2019-05-11T12:18:49.350Z,2.80
2019-05-11T12:21:27.557Z,2.67
2019-05-11T12:24:04.154Z,3.27
2019-05-11T12:26:43.886Z,2.80
2019-05-11T12:29:21.242Z,2.60
2019-05-11T12:31:58.820Z,2.90
2019-05-11T12:34:37.535Z,2.63
2019-05-11T12:37:13.877Z,2.43
2019-05-11T12:39:52.042Z,2.07
2019-05-11T12:42:24.333Z,2.50
2019-05-11T12:44:52.975Z,2.60
2019-05-11T12:47:28.312Z,2.17
2019-05-11T12:50:10.515Z,2.10
2019-05-11T12:52:47.695Z,2.30
2019-05-11T12:55:23.534Z,2.00
2019-05-11T12:58:00.212Z,2.00
2019-05-11T13:00:38.915Z,1.73
2019-05-11T13:03:14.851Z,2.03
2019-05-11T13:05:55.160Z,2.00
2019-05-11T13:08:38.896Z,1.70
2019-05-11T13:11:18.427Z,1.63
2019-05-11T13:13:58.382Z,1.53
2019-05-11T13:16:33.146Z,1.57
2019-05-11T13:19:09.095Z,1.60
2019-05-11T13:21:44.910Z,1.70
2019-05-11T13:24:24.064Z,1.60
2019-05-11T13:27:02.435Z,1.70
2019-05-11T13:29:40.155Z,1.90
2019-05-11T13:32:19.917Z,1.80
2019-05-11T13:35:09.104Z,1.60
2019-05-11T13:37:48.874Z,1.93
2019-05-11T13:40:27.705Z,1.90
2019-05-11T13:43:04.344Z,1.80
2019-05-11T13:45:42.777Z,1.67
2019-05-11T13:48:19.438Z,1.80
2019-05-11T13:50:54.086Z,2.00
2019-05-11T13:53:34.530Z,1.67
2019-05-11T13:56:09.569Z,2.00
2019-05-11T13:58:45.964Z,1.63
2019-05-11T14:01:22.491Z,1.60
2019-05-11T14:04:11.042Z,1.80
2019-05-11T14:06:48.210Z,1.80
2019-05-11T14:09:28.789Z,1.60
2019-05-11T14:12:07.747Z,1.90
2019-05-11T14:14:41.830Z,1.73
2019-05-11T14:17:18.669Z,1.70
2019-05-11T14:20:02.366Z,1.50
2019-05-11T14:22:47.930Z,1.60
2019-05-11T14:25:33.937Z,1.80
2019-05-11T14:28:09.054Z,1.33
2019-05-11T14:30:41.351Z,1.40
2019-05-11T14:33:18.698Z,1.90
2019-05-11T14:35:54.722Z,1.70
2019-05-11T14:38:33.043Z,1.50
2019-05-11T14:41:14.540Z,1.73
2019-05-11T14:43:58.538Z,1.40
2019-05-11T14:46:34.361Z,1.60
2019-05-11T14:49:14.739Z,1.50
2019-05-11T14:51:51.318Z,1.80
2019-05-11T14:54:28.960Z,1.73
2019-05-11T14:57:04.640Z,1.53
2019-05-11T14:59:41.484Z,1.50
2019-05-11T15:02:37.620Z,1.60
2019-05-11T15:05:18.163Z,1.40
2019-05-11T15:07:54.990Z,1.50
2019-05-11T15:10:38.198Z,1.40
2019-05-11T15:13:18.534Z,1.40
2019-05-11T15:15:52.935Z,1.23
2019-05-11T15:18:38.614Z,1.53
2019-05-11T15:21:11.210Z,1.20
2019-05-11T15:23:49.013Z,1.50
2019-05-11T15:26:29.427Z,1.30
2019-05-11T15:29:08.159Z,1.40
2019-05-11T15:31:48.842Z,1.60
2019-05-11T15:34:26.068Z,1.80
2019-05-11T15:37:08.346Z,1.60
2019-05-11T15:39:42.063Z,1.50
2019-05-11T15:42:19.778Z,1.47
2019-05-11T15:44:58.599Z,1.53
2019-05-11T15:47:33.525Z,1.40
2019-05-11T15:50:14.465Z,1.60
2019-05-11T15:52:53.077Z,1.70
2019-05-11T15:55:32.559Z,1.80
2019-05-11T15:58:10.828Z,1.80
2019-05-11T16:00:49.141Z,1.40
2019-05-11T16:03:18.865Z,2.43
2019-05-11T16:05:58.136Z,1.53
2019-05-11T16:08:34.049Z,1.70
2019-05-11T16:11:08.445Z,1.40
2019-05-11T16:13:48.372Z,1.40
2019-05-11T16:16:22.967Z,1.70
2019-05-11T16:19:10.620Z,1.80
2019-05-11T16:21:40.625Z,1.60
2019-05-11T16:24:21.371Z,1.50
2019-05-11T16:26:58.260Z,1.40
2019-05-11T16:29:38.310Z,1.50
2019-05-11T16:32:13.099Z,1.40
2019-05-11T16:34:47.106Z,1.70
2019-05-11T16:37:21.733Z,1.37
2019-05-11T16:40:00.930Z,1.50
2019-05-11T16:42:43.556Z,1.60
2019-05-11T16:45:19.483Z,1.60
2019-05-11T16:47:52.899Z,1.50
2019-05-11T16:50:28.267Z,1.43
2019-05-11T16:53:04.173Z,1.33
2019-05-11T16:55:48.627Z,1.50
2019-05-11T16:58:24.620Z,1.50
2019-05-11T17:01:08.532Z,1.43
2019-05-11T17:03:53.864Z,1.20
2019-05-11T17:06:31.869Z,1.60
2019-05-11T17:09:10.102Z,1.27
2019-05-11T17:11:49.100Z,1.37
2019-05-11T17:14:21.630Z,1.70
2019-05-11T17:17:02.585Z,1.50
2019-05-11T17:19:45.303Z,1.27
2019-05-11T17:22:10.694Z,1.50
2019-05-11T17:24:43.754Z,1.80
2019-05-11T17:27:20.736Z,1.50
2019-05-11T17:29:59.347Z,1.50
2019-05-11T17:32:38.451Z,1.60
2019-05-11T17:35:10.647Z,1.60
2019-05-11T17:37:49.239Z,1.40
2019-05-11T17:40:25.328Z,1.60
2019-05-11T17:43:02.330Z,1.50
2019-05-11T17:45:39.042Z,1.70
2019-05-11T17:48:17.860Z,1.60
2019-05-11T17:50:50.906Z,1.80
2019-05-11T17:53:28.503Z,1.60
2019-05-11T17:56:03.205Z,1.50
2019-05-11T17:58:38.002Z,1.90
2019-05-11T18:01:15.008Z,1.60
2019-05-11T18:03:51.618Z,1.70
2019-05-11T18:06:30.019Z,1.50
2019-05-11T18:09:12.040Z,1.57
2019-05-11T18:11:52.746Z,1.60
2019-05-11T18:14:36.093Z,1.77
2019-05-11T18:17:10.807Z,1.40
2019-05-11T18:19:47.125Z,1.60
2019-05-11T18:22:32.532Z,1.27
2019-05-11T18:25:09.017Z,1.43
2019-05-11T18:27:47.997Z,1.40
2019-05-11T18:30:26.158Z,1.77
2019-05-11T18:33:03.530Z,1.80
2019-05-11T18:35:39.928Z,5.67
2019-05-11T18:38:18.295Z,2.40
2019-05-11T18:40:58.191Z,1.90
2019-05-11T18:43:32.891Z,2.60
2019-05-11T18:46:09.394Z,2.17
2019-05-11T18:48:44.471Z,1.90
2019-05-11T18:51:17.013Z,2.20
2019-05-11T18:53:52.095Z,2.20
2019-05-11T18:56:31.586Z,3.10
2019-05-11T18:59:08.871Z,3.47
2019-05-11T19:01:48.362Z,3.33
2019-05-11T19:04:23.977Z,3.00
2019-05-11T19:07:13.028Z,2.33
2019-05-11T19:09:37.987Z,2.30
2019-05-11T19:12:10.723Z,2.50
2019-05-11T19:14:43.914Z,3.90
2019-05-11T19:17:18.188Z,3.97
2019-05-11T19:19:57.863Z,3.43
2019-05-11T19:22:34.426Z,2.80
2019-05-11T19:25:09.033Z,3.10
2019-05-11T19:27:40.932Z,2.90
2019-05-11T19:30:11.897Z,6.57
2019-05-11T19:32:48.680Z,4.53
2019-05-11T19:35:24.620Z,3.67
2019-05-11T19:38:03.257Z,3.53
2019-05-11T19:40:38.418Z,2.90
2019-05-11T19:43:08.319Z,3.40
2019-05-11T19:45:38.435Z,3.33
2019-05-11T19:48:08.766Z,2.80
2019-05-11T19:50:40.966Z,3.37
2019-05-11T19:53:10.594Z,3.73
2019-05-11T19:55:39.180Z,3.27
2019-05-11T19:58:07.888Z,3.90
2019-05-11T20:00:38.052Z,4.03
2019-05-11T20:03:09.228Z,4.93
2019-05-11T20:05:38.438Z,4.73
2019-05-11T20:08:07.936Z,6.50
2019-05-11T20:10:38.313Z,5.67
2019-05-11T20:13:07.938Z,4.77
2019-05-11T20:15:38.079Z,3.90
2019-05-11T20:18:09.225Z,3.53
2019-05-11T20:20:41.858Z,3.77
2019-05-11T20:23:11.452Z,4.13
2019-05-11T20:25:47.755Z,4.13
2019-05-11T20:28:19.723Z,4.97
2019-05-11T20:30:48.438Z,4.10
2019-05-11T20:33:18.978Z,4.00
2019-05-11T20:35:48.812Z,4.20
2019-05-11T20:38:18.787Z,3.67
2019-05-11T20:40:48.461Z,4.10
2019-05-11T20:43:19.283Z,5.13
2019-05-11T20:45:48.802Z,5.57
2019-05-11T20:48:18.505Z,4.43
2019-05-11T20:50:48.330Z,4.50
2019-05-11T20:53:17.955Z,4.20
2019-05-11T20:55:47.824Z,3.80
2019-05-11T20:58:18.985Z,3.60
2019-05-11T21:00:49.097Z,3.93
2019-05-11T21:03:18.025Z,4.03
2019-05-11T21:05:48.260Z,4.20
2019-05-11T21:08:17.769Z,4.27
2019-05-11T21:10:48.962Z,3.83
2019-05-11T21:13:18.075Z,3.63
2019-05-11T21:15:49.188Z,3.50
2019-05-11T21:18:18.514Z,3.57
2019-05-11T21:20:48.387Z,3.20
2019-05-11T21:23:18.743Z,3.80
2019-05-11T21:25:47.295Z,4.57
2019-05-11T21:28:15.940Z,6.00
2019-05-11T21:30:44.446Z,6.43
2019-05-11T21:33:12.892Z,6.10
2019-05-11T21:35:41.744Z,4.73
2019-05-11T21:38:10.632Z,4.50
2019-05-11T21:40:39.071Z,3.90
2019-05-11T21:43:08.745Z,3.50
2019-05-11T21:45:40.528Z,3.80
2019-05-11T21:48:08.304Z,4.00
2019-05-11T21:50:36.974Z,3.57
2019-05-11T21:53:10.238Z,4.03
2019-05-11T21:55:37.797Z,3.93
2019-05-11T21:58:08.857Z,4.10
2019-05-11T22:00:38.636Z,3.77
2019-05-11T22:03:10.350Z,3.90
2019-05-11T22:05:39.308Z,3.80
2019-05-11T22:08:08.552Z,3.93
2019-05-11T22:10:38.535Z,4.00
2019-05-11T22:13:07.229Z,4.07
2019-05-11T22:15:38.341Z,3.63
2019-05-11T22:18:08.058Z,4.17
2019-05-11T22:20:40.497Z,4.00
2019-05-11T22:23:08.455Z,4.13
2019-05-11T22:25:38.205Z,3.83
2019-05-11T22:28:08.505Z,4.03
2019-05-11T22:30:39.098Z,4.00
2019-05-11T22:33:09.020Z,4.47
2019-05-11T22:35:37.918Z,4.27
2019-05-11T22:38:08.406Z,4.20
2019-05-11T22:40:38.389Z,4.50
2019-05-11T22:43:09.316Z,4.97
2019-05-11T22:45:38.322Z,4.50
2019-05-11T22:48:08.126Z,4.50
2019-05-11T22:50:38.145Z,4.30
2019-05-11T22:53:08.675Z,4.73
2019-05-11T22:55:38.173Z,4.57
2019-05-11T22:58:08.455Z,4.40
2019-05-11T23:00:41.537Z,4.60
2019-05-11T23:03:10.945Z,4.17
2019-05-11T23:05:40.164Z,4.03
2019-05-11T23:08:08.739Z,4.33
2019-05-11T23:10:38.700Z,4.43
2019-05-11T23:13:08.237Z,4.97
2019-05-11T23:15:40.319Z,5.00
2019-05-11T23:18:08.893Z,4.70
2019-05-11T23:20:38.608Z,4.93
2019-05-11T23:23:08.777Z,4.43
2019-05-11T23:25:37.554Z,4.97
2019-05-11T23:28:05.918Z,4.70
2019-05-11T23:30:34.579Z,5.37
2019-05-11T23:33:03.290Z,5.33
2019-05-11T23:35:32.048Z,5.10
2019-05-11T23:38:00.894Z,5.37
2019-05-11T23:40:29.592Z,5.10
2019-05-11T23:42:58.070Z,5.33
2019-05-11T23:45:27.999Z,5.47
2019-05-11T23:47:58.853Z,6.80
2019-05-11T23:50:28.279Z,6.40
2019-05-11T23:53:05.903Z,7.20
2019-05-11T23:55:28.925Z,6.40
2019-05-11T23:57:57.895Z,6.03
